Time;durP1;ratioP1;P1;durP2;ratioP2;P2;SDS_P1;SDS_P2;PMS_P1;PMS_P2;Temp;Humidity;BMP_temperature;BMP_pressure;BME280_temperature;BME280_humidity;BME280_pressure;Samples;Min_cycle;Max_cycle;Signal;HPM_P1;HPM_P2
2022/11/09 00:00:35;;;;;;;4.70;1.10;;;11.40;99.90;;;;;;5012573;28;20018;-77
2022/11/09 00:03:00;;;;;;;6.43;1.15;;;11.40;99.90;;;;;;5012795;28;20073;-77
2022/11/09 00:05:26;;;;;;;3.85;1.17;;;11.40;99.90;;;;;;5008252;28;20030;-77
2022/11/09 00:07:51;;;;;;;6.25;1.40;;;11.10;99.90;;;;;;4996320;28;20026;-77
2022/11/09 00:10:17;;;;;;;3.85;1.50;;;10.90;1.00;;;;;;5005603;28;20071;-77
2022/11/09 00:12:43;;;;;;;5.45;1.35;;;10.90;1.00;;;;;;5004738;28;20157;-77
2022/11/09 00:15:09;;;;;;;5.68;1.42;;;10.90;1.00;;;;;;5003198;28;20050;-77
2022/11/09 00:17:34;;;;;;;3.85;1.63;;;10.80;1.00;;;;;;4998935;28;20381;-77
2022/11/09 00:20:00;;;;;;;7.15;1.17;;;10.90;1.00;;;;;;4997949;28;20034;-77
2022/11/09 00:22:25;;;;;;;6.32;1.08;;;10.80;1.00;;;;;;5004412;28;20026;-77
2022/11/09 00:24:51;;;;;;;7.68;1.20;;;10.80;1.00;;;;;;5002116;28;20036;-77
2022/11/09 00:27:16;;;;;;;8.80;1.38;;;11.00;1.00;;;;;;5011180;28;20057;-77
2022/11/09 00:29:42;;;;;;;6.03;1.42;;;10.90;1.00;;;;;;5011675;28;20049;-77
2022/11/09 00:32:07;;;;;;;4.22;1.20;;;11.00;1.00;;;;;;4998965;28;20592;-77
2022/11/09 00:34:33;;;;;;;4.22;1.30;;;11.00;1.00;;;;;;5008040;28;20385;-77
2022/11/09 00:36:59;;;;;;;4.72;1.20;;;11.20;1.00;;;;;;5006787;28;20080;-77
2022/11/09 00:39:24;;;;;;;6.07;1.05;;;11.10;1.00;;;;;;5009565;28;20054;-77
2022/11/09 00:41:50;;;;;;;10.35;1.30;;;11.00;1.00;;;;;;5008603;28;20033;-77
2022/11/09 00:44:15;;;;;;;4.28;1.23;;;11.10;1.00;;;;;;5002781;28;20029;-77
2022/11/09 00:46:41;;;;;;;4.00;1.20;;;11.10;1.00;;;;;;5006809;28;20040;-77
2022/11/09 00:49:06;;;;;;;6.88;2.00;;;11.10;1.00;;;;;;5002145;28;20022;-77
2022/11/09 00:51:32;;;;;;;9.13;1.80;;;10.90;1.00;;;;;;5010051;28;20034;-77
2022/11/09 00:53:57;;;;;;;4.85;1.40;;;10.90;1.00;;;;;;5007305;28;20026;-77
2022/11/09 00:56:23;;;;;;;6.38;1.60;;;11.20;1.00;;;;;;5000652;28;20034;-77
2022/11/09 00:58:53;;;;;;;5.70;1.73;;;10.90;1.00;;;;;;5013036;28;20029;-77
2022/11/09 01:01:19;;;;;;;5.43;2.30;;;11.00;1.00;;;;;;5006812;28;20022;-77
2022/11/09 01:03:45;;;;;;;5.80;2.30;;;11.00;1.00;;;;;;5008424;28;20049;-77
2022/11/09 01:06:16;;;;;;;5.72;2.08;;;10.90;7.00;;;;;;4996806;28;20034;-77
2022/11/09 01:08:42;;;;;;;6.00;2.20;;;11.00;1.00;;;;;;5003630;28;20076;-77
2022/11/09 01:11:09;;;;;;;6.05;2.00;;;10.80;1.00;;;;;;4996745;28;20117;-77
2022/11/09 01:13:36;;;;;;;4.95;1.83;;;10.80;6.80;;;;;;5002986;28;20149;-77
2022/11/09 01:16:08;;;;;;;7.82;1.92;;;10.70;1.00;;;;;;5000374;28;20046;-77
2022/11/09 01:18:35;;;;;;;4.97;1.80;;;10.70;1.00;;;;;;5009530;28;20154;-77
2022/11/09 01:21:04;;;;;;;5.35;1.98;;;10.60;28.70;;;;;;5004015;28;20030;-77
2022/11/09 01:23:30;;;;;;;4.00;1.77;;;10.50;43.20;;;;;;4996211;28;20053;-77
2022/11/09 01:26:05;;;;;;;6.55;1.73;;;10.50;83.00;;;;;;5014960;28;20022;-77
2022/11/09 01:28:30;;;;;;;4.05;1.30;;;10.40;99.90;;;;;;4998564;28;20026;-77
2022/11/09 01:31:01;;;;;;;8.35;1.80;;;10.40;99.90;;;;;;5007358;28;20029;-77
2022/11/09 01:33:27;;;;;;;4.20;1.75;;;10.30;99.90;;;;;;5009117;28;21575;-77
2022/11/09 01:35:52;;;;;;;4.90;1.70;;;10.50;99.90;;;;;;5010197;28;20121;-77
2022/11/09 01:38:18;;;;;;;8.75;2.80;;;10.30;99.90;;;;;;5016423;28;20101;-77
2022/11/09 01:40:43;;;;;;;6.55;2.30;;;10.30;99.90;;;;;;5016156;28;20026;-77
2022/11/09 01:43:23;;;;;;;6.72;2.05;;;10.30;99.90;;;;;;5016246;28;20034;-77
2022/11/09 01:46:10;;;;;;;9.60;2.60;;;10.50;99.90;;;;;;5016409;28;20040;-77
2022/11/09 01:48:48;;;;;;;8.23;2.28;;;10.30;99.90;;;;;;5016089;28;20034;-77
2022/11/09 01:51:28;;;;;;;5.82;2.28;;;10.40;99.90;;;;;;5015585;28;20074;-77
2022/11/09 01:54:01;;;;;;;6.18;2.40;;;10.30;99.90;;;;;;5018944;28;20032;-77
2022/11/09 01:56:28;;;;;;;11.40;2.90;;;10.30;99.90;;;;;;5020442;28;20120;-77
2022/11/09 01:59:01;;;;;;;7.80;2.38;;;10.40;99.90;;;;;;5016129;28;20115;-77
2022/11/09 02:01:47;;;;;;;7.50;2.80;;;10.20;99.90;;;;;;5027665;28;20534;-77
2022/11/09 02:04:23;;;;;;;8.20;2.00;;;10.20;99.90;;;;;;4996403;28;20460;-77
2022/11/09 02:06:49;;;;;;;6.32;2.10;;;10.30;99.90;;;;;;4996119;28;20027;-77
2022/11/09 02:09:27;;;;;;;5.15;1.77;;;10.30;99.90;;;;;;5000202;28;20049;-77
2022/11/09 02:11:53;;;;;;;4.53;1.70;;;10.20;99.90;;;;;;5015795;28;20038;-77
2022/11/09 02:14:21;;;;;;;6.32;1.90;;;10.30;99.90;;;;;;5002265;28;20041;-77
2022/11/09 02:16:47;;;;;;;5.00;1.90;;;10.20;99.90;;;;;;5010496;28;20069;-77
2022/11/09 02:19:12;;;;;;;5.00;2.08;;;10.20;99.90;;;;;;5007955;28;20397;-77
2022/11/09 02:21:38;;;;;;;10.05;3.08;;;10.10;99.90;;;;;;4996810;28;20461;-77
2022/11/09 02:24:04;;;;;;;8.00;2.80;;;10.10;1.00;;;;;;5005290;28;20030;-77
2022/11/09 02:26:33;;;;;;;13.45;2.85;;;10.20;1.00;;;;;;5013406;28;20037;-77
2022/11/09 02:29:02;;;;;;;6.50;2.45;;;10.20;1.00;;;;;;5013486;28;20388;-77
2022/11/09 02:31:33;;;;;;;9.23;2.72;;;10.20;1.00;;;;;;5004479;28;20025;-77
2022/11/09 02:34:09;;;;;;;12.45;3.50;;;10.10;1.00;;;;;;5006794;28;20105;-77
2022/11/09 02:36:35;;;;;;;9.32;2.80;;;10.20;1.00;;;;;;5010597;28;20033;-77
2022/11/09 02:39:01;;;;;;;8.02;2.35;;;10.30;1.00;;;;;;4998714;28;20101;-77
2022/11/09 02:41:30;;;;;;;6.78;2.30;;;10.20;1.00;;;;;;5009135;28;20473;-77
2022/11/09 02:43:56;;;;;;;8.68;2.72;;;10.30;1.00;;;;;;5003483;28;20026;-77
2022/11/09 02:46:35;;;;;;;11.27;3.15;;;10.40;1.00;;;;;;5004602;28;20031;-77
2022/11/09 02:49:02;;;;;;;9.80;2.30;;;10.30;1.00;;;;;;5005157;28;20099;-77
2022/11/09 02:51:28;;;;;;;8.75;1.90;;;10.30;1.00;;;;;;5010404;28;20108;-77
2022/11/09 02:53:53;;;;;;;10.77;2.80;;;10.10;1.00;;;;;;5000772;28;20058;-77
2022/11/09 02:56:19;;;;;;;10.93;2.30;;;10.20;1.00;;;;;;5000120;28;20069;-77
2022/11/09 02:58:44;;;;;;;8.75;3.55;;;10.30;1.00;;;;;;5007552;28;20026;-77
2022/11/09 03:01:10;;;;;;;7.15;1.90;;;10.30;1.00;;;;;;5007955;28;20156;-77
2022/11/09 03:03:36;;;;;;;4.57;1.50;;;10.10;1.00;;;;;;5005399;28;20022;-77
2022/11/09 03:06:01;;;;;;;8.23;2.03;;;10.20;1.00;;;;;;4999967;28;20030;-77
2022/11/09 03:08:27;;;;;;;10.80;2.45;;;10.20;1.00;;;;;;4999674;28;20029;-77
2022/11/09 03:10:53;;;;;;;7.47;1.75;;;10.10;1.00;;;;;;5001652;28;20485;-77
2022/11/09 03:13:18;;;;;;;8.20;2.20;;;10.10;1.00;;;;;;5000703;28;20386;-77
2022/11/09 03:15:44;;;;;;;9.15;1.75;;;10.10;1.00;;;;;;5012636;28;20029;-77
2022/11/09 03:18:10;;;;;;;7.28;1.60;;;10.00;1.00;;;;;;5003901;28;20018;-77
2022/11/09 03:20:35;;;;;;;13.27;2.03;;;10.00;1.00;;;;;;5010481;28;20448;-77
2022/11/09 03:23:01;;;;;;;10.35;1.73;;;10.20;1.00;;;;;;5006898;28;20026;-77
2022/11/09 03:25:27;;;;;;;6.65;1.60;;;10.20;1.00;;;;;;4999540;28;20097;-77
2022/11/09 03:27:58;;;;;;;7.00;1.60;;;10.10;1.00;;;;;;5005792;28;20072;-77
2022/11/09 03:30:23;;;;;;;7.88;1.70;;;10.20;1.00;;;;;;5004567;28;20397;-77
2022/11/09 03:32:49;;;;;;;9.90;2.13;;;10.00;1.00;;;;;;5004551;28;20571;-77
2022/11/09 03:35:14;;;;;;;10.95;2.40;;;10.10;1.00;;;;;;5006290;28;20030;-77
2022/11/09 03:37:40;;;;;;;9.57;2.03;;;10.00;1.00;;;;;;4996098;28;20026;-77
2022/11/09 03:40:06;;;;;;;7.95;1.63;;;9.90;1.00;;;;;;5007592;28;20030;-77
2022/11/09 03:42:32;;;;;;;9.32;2.10;;;10.00;1.00;;;;;;5002052;28;20010;-77
2022/11/09 03:44:57;;;;;;;11.80;2.38;;;9.90;99.90;;;;;;4994905;28;20491;-77
2022/11/09 03:47:23;;;;;;;14.55;2.40;;;9.90;99.90;;;;;;5011709;28;20018;-77
2022/11/09 03:49:48;;;;;;;3.78;1.45;;;10.00;1.00;;;;;;4996954;28;20117;-77
2022/11/09 03:52:14;;;;;;;10.98;2.25;;;10.00;99.90;;;;;;5001371;28;20396;-77
2022/11/09 03:54:39;;;;;;;7.38;1.45;;;10.00;99.90;;;;;;5004701;28;20035;-77
2022/11/09 03:57:05;;;;;;;10.25;1.92;;;10.10;99.90;;;;;;5000771;28;20026;-77
2022/11/09 03:59:30;;;;;;;13.10;2.22;;;10.20;99.90;;;;;;5005508;28;20097;-77
2022/11/09 04:01:56;;;;;;;14.88;2.42;;;10.10;99.90;;;;;;4997647;28;20026;-77
2022/11/09 04:04:22;;;;;;;11.02;1.80;;;10.40;99.90;;;;;;5005219;28;20579;-77
2022/11/09 04:06:47;;;;;;;11.80;1.80;;;10.50;99.90;;;;;;5000538;28;20499;-77
2022/11/09 04:09:13;;;;;;;10.50;2.15;;;10.50;99.90;;;;;;4998487;28;20027;-77
2022/11/09 04:11:38;;;;;;;11.45;1.92;;;10.50;99.90;;;;;;5000950;28;20025;-77
2022/11/09 04:14:04;;;;;;;10.45;2.65;;;10.50;99.90;;;;;;5002332;28;20094;-77
2022/11/09 04:16:29;;;;;;;10.38;2.17;;;10.50;99.90;;;;;;5010497;28;20497;-77
2022/11/09 04:18:55;;;;;;;12.57;1.88;;;10.50;99.90;;;;;;5009359;28;20030;-77
2022/11/09 04:21:21;;;;;;;21.58;2.50;;;10.40;99.90;;;;;;5009081;28;20391;-77
2022/11/09 04:23:48;;;;;;;13.13;1.83;;;10.30;99.90;;;;;;5004688;28;20019;-77
2022/11/09 04:26:14;;;;;;;8.20;1.90;;;10.20;99.90;;;;;;5014165;28;20026;-77
2022/11/09 04:28:39;;;;;;;8.10;2.63;;;10.30;99.90;;;;;;5004208;28;20543;-77
2022/11/09 04:31:05;;;;;;;8.07;2.03;;;10.30;99.90;;;;;;5001035;28;20109;-77
2022/11/09 04:33:30;;;;;;;11.13;2.30;;;10.30;99.90;;;;;;5008064;28;20084;-77
2022/11/09 04:36:02;;;;;;;7.90;1.80;;;10.30;99.90;;;;;;5005115;28;20038;-77
2022/11/09 04:38:27;;;;;;;11.48;1.65;;;10.30;99.90;;;;;;5001221;28;20033;-77
2022/11/09 04:40:53;;;;;;;8.02;1.77;;;10.50;99.90;;;;;;5012643;28;20025;-77
2022/11/09 04:43:18;;;;;;;9.80;1.70;;;10.30;99.90;;;;;;5015714;28;20026;-77
2022/11/09 04:45:45;;;;;;;12.07;1.90;;;10.40;99.90;;;;;;5007858;28;20033;-77
2022/11/09 04:48:11;;;;;;;9.68;1.73;;;10.40;99.90;;;;;;5010841;28;20069;-77
2022/11/09 04:50:36;;;;;;;9.43;1.77;;;10.40;99.90;;;;;;5004170;28;20023;-77
2022/11/09 04:53:11;;;;;;;10.50;1.73;;;10.40;99.90;;;;;;5004286;28;20033;-77
2022/11/09 04:55:37;;;;;;;13.68;2.38;;;10.40;99.90;;;;;;4999791;28;20030;-77
2022/11/09 04:58:03;;;;;;;11.82;1.98;;;10.50;99.90;;;;;;5003835;28;20031;-77
2022/11/09 05:00:29;;;;;;;11.68;2.47;;;10.40;99.90;;;;;;5003260;28;20038;-77
2022/11/09 05:02:54;;;;;;;9.80;2.00;;;10.40;99.90;;;;;;5005097;28;20121;-77
2022/11/09 05:05:20;;;;;;;13.15;2.10;;;10.30;99.90;;;;;;5012051;28;20395;-77
2022/11/09 05:07:45;;;;;;;9.95;1.83;;;10.30;99.90;;;;;;5006209;28;20033;-77
2022/11/09 05:10:11;;;;;;;10.20;1.75;;;10.20;99.90;;;;;;5012398;28;20021;-77
2022/11/09 05:12:36;;;;;;;7.72;2.17;;;10.20;99.90;;;;;;5000389;28;20025;-77
2022/11/09 05:15:02;;;;;;;13.02;1.75;;;10.30;99.90;;;;;;4996536;28;20105;-77
2022/11/09 05:17:28;;;;;;;9.80;2.10;;;10.10;99.90;;;;;;4997550;28;20030;-77
2022/11/09 05:19:53;;;;;;;8.80;2.17;;;10.00;99.90;;;;;;4997529;28;20026;-77
2022/11/09 05:25:03;;;;;;;8.75;1.85;;;10.10;99.90;;;;;;4996800;28;20133;-77
2022/11/09 05:27:29;;;;;;;10.45;1.95;;;9.90;99.90;;;;;;4996812;28;20540;-77
2022/11/09 05:29:54;;;;;;;11.70;1.88;;;9.90;99.90;;;;;;4998098;28;20034;-77
2022/11/09 05:32:20;;;;;;;9.95;1.80;;;9.80;99.90;;;;;;4996266;28;20393;-77
2022/11/09 05:34:45;;;;;;;12.52;2.05;;;9.90;99.90;;;;;;4996794;28;20023;-77
2022/11/09 05:37:11;;;;;;;7.32;1.90;;;9.80;99.90;;;;;;4996593;28;20121;-77
2022/11/09 05:39:37;;;;;;;6.88;2.10;;;9.90;99.90;;;;;;5011508;28;20018;-77
2022/11/09 05:42:02;;;;;;;12.85;1.92;;;9.80;99.90;;;;;;5010205;28;20385;-77
2022/11/09 05:44:28;;;;;;;13.05;2.58;;;9.70;99.90;;;;;;5006776;28;20029;-77
2022/11/09 05:46:54;;;;;;;11.43;1.98;;;9.90;99.90;;;;;;4998639;28;20034;-77
2022/11/09 05:49:19;;;;;;;9.40;2.13;;;9.70;99.90;;;;;;5002539;28;20477;-77
2022/11/09 05:51:45;;;;;;;9.35;1.83;;;9.80;99.90;;;;;;5012144;28;20045;-77
2022/11/09 05:54:10;;;;;;;13.18;2.22;;;9.70;99.90;;;;;;5016308;28;20030;-77
2022/11/09 05:56:36;;;;;;;8.38;2.50;;;9.60;99.90;;;;;;5015997;28;20375;-77
2022/11/09 05:59:01;;;;;;;10.85;2.30;;;9.70;1.00;;;;;;5015640;28;20033;-77
2022/11/09 06:01:27;;;;;;;10.85;2.50;;;9.60;1.00;;;;;;5013707;28;20018;-77
2022/11/09 06:03:53;;;;;;;13.02;2.25;;;9.60;1.00;;;;;;5003037;28;20556;-77
2022/11/09 06:06:19;;;;;;;8.80;2.17;;;9.60;1.00;;;;;;5008384;28;20026;-77
2022/11/09 06:08:44;;;;;;;10.40;2.53;;;9.50;1.00;;;;;;5004633;28;20392;-77
2022/11/09 06:11:12;;;;;;;10.32;2.70;;;9.60;1.00;;;;;;5002887;28;20021;-77
2022/11/09 06:13:37;;;;;;;6.60;2.72;;;9.60;1.00;;;;;;5005463;28;20125;-77
2022/11/09 06:16:04;;;;;;;8.52;2.30;;;9.60;1.00;;;;;;5008649;28;20074;-77
2022/11/09 06:18:31;;;;;;;7.40;2.97;;;9.50;1.00;;;;;;5006711;28;20027;-77
2022/11/09 06:21:00;;;;;;;6.63;2.17;;;9.70;1.00;;;;;;4996995;28;20034;-77
2022/11/09 06:23:28;;;;;;;6.43;2.03;;;9.50;1.00;;;;;;5008591;28;20100;-77
2022/11/09 06:26:05;;;;;;;8.80;2.05;;;9.80;1.00;;;;;;5005980;28;20081;-77
2022/11/09 06:28:31;;;;;;;6.88;2.10;;;9.60;1.00;;;;;;5007280;28;20050;-77
2022/11/09 06:30:58;;;;;;;5.20;1.90;;;9.50;1.00;;;;;;5004321;28;20026;-77
2022/11/09 06:33:24;;;;;;;4.13;1.67;;;9.50;1.00;;;;;;5013512;28;20075;-78
2022/11/09 06:35:50;;;;;;;5.35;1.55;;;9.40;1.00;;;;;;5005026;28;20038;-77
2022/11/09 06:38:15;;;;;;;9.68;2.42;;;9.40;1.00;;;;;;5001640;28;20526;-77
2022/11/09 06:40:41;;;;;;;10.30;1.90;;;9.40;1.00;;;;;;4999380;28;20022;-77
2022/11/09 06:43:07;;;;;;;9.63;2.00;;;9.50;1.00;;;;;;5007196;28;20454;-77
2022/11/09 06:45:32;;;;;;;6.28;1.67;;;9.30;1.00;;;;;;4999718;28;20033;-77
2022/11/09 06:48:00;;;;;;;7.35;1.77;;;9.40;1.00;;;;;;4998029;28;20022;-77
2022/11/09 06:50:28;;;;;;;6.15;2.10;;;9.40;1.00;;;;;;5012057;28;20034;-77
2022/11/09 06:53:02;;;;;;;7.72;2.00;;;9.30;1.00;;;;;;4999984;28;20027;-77
2022/11/09 06:55:29;;;;;;;4.90;1.90;;;9.20;99.90;;;;;;5005717;28;20038;-77
2022/11/09 06:57:55;;;;;;;5.95;2.08;;;9.30;99.90;;;;;;5001515;28;20037;-77
2022/11/09 07:00:22;;;;;;;10.20;2.92;;;9.30;1.00;;;;;;5008660;28;20026;-77
2022/11/09 07:02:47;;;;;;;7.72;1.80;;;9.40;1.00;;;;;;5001462;28;20022;-77
2022/11/09 07:05:13;;;;;;;5.88;1.75;;;9.30;1.00;;;;;;4999967;28;20075;-77
2022/11/09 07:07:39;;;;;;;9.52;1.60;;;9.30;1.00;;;;;;4995075;28;20132;-77
2022/11/09 07:10:05;;;;;;;8.85;2.15;;;9.40;1.00;;;;;;5002940;28;20022;-77
2022/11/09 07:12:32;;;;;;;7.00;1.55;;;9.60;1.00;;;;;;4995002;28;20437;-77
2022/11/09 07:14:57;;;;;;;7.70;1.95;;;9.60;1.00;;;;;;5001789;28;20511;-77
2022/11/09 07:17:23;;;;;;;9.55;1.70;;;9.70;1.00;;;;;;5004673;28;20027;-77
2022/11/09 07:19:48;;;;;;;7.22;1.88;;;9.70;1.00;;;;;;5012007;28;20025;-77
2022/11/09 07:22:14;;;;;;;5.90;1.60;;;9.80;1.00;;;;;;5002961;28;20054;-77
2022/11/09 07:24:39;;;;;;;10.65;2.00;;;9.90;1.00;;;;;;5006796;28;20030;-77
2022/11/09 07:27:05;;;;;;;11.38;1.65;;;10.00;99.90;;;;;;4997573;28;20037;-77
2022/11/09 07:29:30;;;;;;;6.28;1.73;;;10.10;99.90;;;;;;5012179;28;20029;-77
2022/11/09 07:31:56;;;;;;;9.75;1.90;;;10.20;99.90;;;;;;5005075;28;20030;-77
2022/11/09 07:34:22;;;;;;;10.48;1.80;;;10.80;99.90;;;;;;5004899;28;20048;-77
2022/11/09 07:36:47;;;;;;;6.13;1.70;;;10.60;99.90;;;;;;4999949;28;20056;-77
2022/11/09 07:39:13;;;;;;;8.38;2.15;;;10.60;99.90;;;;;;5003839;28;20127;-77
2022/11/09 07:41:38;;;;;;;6.90;2.13;;;10.70;66.70;;;;;;5012688;28;20080;-77
2022/11/09 07:44:04;;;;;;;10.18;2.05;;;11.40;1.00;;;;;;5002794;28;20380;-77
2022/11/09 07:46:29;;;;;;;9.50;2.10;;;11.60;99.90;;;;;;4997309;28;20026;-77
2022/11/09 07:48:55;;;;;;;8.65;2.10;;;12.00;99.90;;;;;;5008899;28;20445;-77
2022/11/09 07:51:21;;;;;;;12.77;1.77;;;11.90;99.90;;;;;;5000862;28;20564;-77
2022/11/09 07:53:46;;;;;;;9.27;2.15;;;12.60;99.90;;;;;;5012810;28;20380;-79
2022/11/09 07:56:12;;;;;;;7.35;1.67;;;13.00;99.90;;;;;;4998815;28;20397;-80
2022/11/09 07:58:38;;;;;;;6.03;1.88;;;13.00;99.90;;;;;;4999883;28;20065;-80
2022/11/09 08:01:09;;;;;;;6.10;1.77;;;13.80;99.90;;;;;;4995399;28;20381;-80
2022/11/09 08:03:35;;;;;;;6.90;1.52;;;16.20;15.90;;;;;;4998566;28;20528;-80
2022/11/09 08:06:00;;;;;;;8.63;1.90;;;18.00;1.00;;;;;;4996029;28;20128;-80
2022/11/09 08:08:26;;;;;;;6.32;1.80;;;18.60;1.00;;;;;;5002482;28;20027;-81
2022/11/09 08:10:52;;;;;;;5.13;1.55;;;18.70;1.00;;;;;;4996338;28;20022;-80
2022/11/09 08:13:18;;;;;;;9.88;1.98;;;16.60;1.00;;;;;;5012773;28;20057;-80
2022/11/09 08:15:44;;;;;;;8.32;2.45;;;15.00;1.00;;;;;;5009358;28;20030;-80
2022/11/09 08:18:16;;;;;;;7.93;1.42;;;14.30;1.00;;;;;;4996142;28;20022;-80
2022/11/09 08:20:42;;;;;;;5.72;1.65;;;14.00;1.00;;;;;;4996225;28;20037;-81
2022/11/09 08:23:11;;;;;;;10.65;1.63;;;13.90;1.00;;;;;;5008669;28;20026;-80
2022/11/09 08:25:37;;;;;;;9.43;1.52;;;14.90;1.00;;;;;;5017186;28;20022;-80
2022/11/09 08:28:02;;;;;;;8.95;1.50;;;16.00;1.00;;;;;;5016732;28;20082;-81
2022/11/09 08:30:29;;;;;;;9.60;1.92;;;19.20;1.00;;;;;;5008050;28;20034;-79
2022/11/09 08:32:54;;;;;;;9.68;1.48;;;20.50;1.00;;;;;;4999502;28;20030;-79
2022/11/09 08:35:22;;;;;;;11.82;1.70;;;21.50;1.00;;;;;;5005912;28;20034;-79
2022/11/09 08:37:49;;;;;;;7.57;1.90;;;20.50;1.00;;;;;;4999156;28;20026;-79
2022/11/09 08:40:18;;;;;;;9.93;1.92;;;18.90;1.00;;;;;;4998488;28;20015;-79
2022/11/09 08:42:44;;;;;;;5.25;1.55;;;17.30;1.00;;;;;;5015568;28;20495;-79
2022/11/09 08:45:10;;;;;;;6.22;1.35;;;16.10;1.00;;;;;;5003621;28;20031;-79
2022/11/09 08:47:37;;;;;;;7.22;1.70;;;15.40;1.00;;;;;;4995716;28;20022;-78
2022/11/09 08:50:03;;;;;;;9.07;1.67;;;14.80;1.00;;;;;;5003852;28;20018;-78
2022/11/09 08:52:29;;;;;;;6.40;1.45;;;14.60;1.00;;;;;;5003460;28;20031;-79
2022/11/09 08:54:56;;;;;;;10.45;2.10;;;14.40;1.00;;;;;;4996231;28;20026;-79
2022/11/09 08:57:22;;;;;;;7.05;2.03;;;14.40;1.00;;;;;;5011095;28;20554;-79
2022/11/09 08:59:48;;;;;;;8.70;2.03;;;14.70;1.00;;;;;;5007083;28;20026;-79
2022/11/09 09:02:14;;;;;;;7.38;1.52;;;15.30;1.00;;;;;;5006211;28;20507;-78
2022/11/09 09:04:40;;;;;;;6.40;1.77;;;15.20;1.00;;;;;;5010049;28;20068;-80
2022/11/09 09:07:05;;;;;;;5.93;1.58;;;15.10;1.00;;;;;;5003071;28;20493;-80
2022/11/09 09:09:31;;;;;;;5.60;1.67;;;15.00;1.00;;;;;;5013201;28;20201;-80
2022/11/09 09:11:57;;;;;;;8.45;1.80;;;14.70;1.00;;;;;;5001670;28;20432;-81
2022/11/09 09:14:24;;;;;;;4.65;1.70;;;14.50;1.00;;;;;;5003082;28;20117;-81
2022/11/09 09:16:49;;;;;;;5.50;1.83;;;14.60;1.00;;;;;;5004936;28;20034;-81
2022/11/09 09:19:15;;;;;;;6.75;1.52;;;14.40;1.00;;;;;;5007256;28;20025;-83
2022/11/09 09:21:41;;;;;;;8.50;2.85;;;14.60;1.00;;;;;;5002750;28;20512;-82
2022/11/09 09:24:06;;;;;;;6.60;1.80;;;14.80;1.00;;;;;;5004657;28;20033;-82
2022/11/09 09:26:32;;;;;;;10.27;2.13;;;15.00;1.00;;;;;;5011868;28;20031;-82
2022/11/09 09:28:57;;;;;;;7.07;1.45;;;15.00;1.00;;;;;;5005360;28;20030;-82
2022/11/09 09:31:23;;;;;;;7.85;1.50;;;14.90;1.00;;;;;;5002005;28;20473;-83
2022/11/09 09:33:49;;;;;;;5.03;1.55;;;14.80;1.00;;;;;;5006854;28;20022;-81
2022/11/09 09:36:20;;;;;;;8.20;2.00;;;14.70;1.00;;;;;;5017359;28;20041;-83
2022/11/09 09:38:46;;;;;;;6.13;1.80;;;14.30;1.00;;;;;;5002907;28;20018;-82
2022/11/09 09:41:34;;;;;;;6.18;1.63;;;14.20;1.00;;;;;;5012482;28;20036;-82
2022/11/09 09:44:12;;;;;;;5.45;2.03;;;14.20;1.00;;;;;;5007134;28;20029;-82
2022/11/09 09:47:06;;;;;;;7.80;2.13;;;14.20;1.00;;;;;;5015128;28;20388;-82
2022/11/09 09:49:35;;;;;;;7.65;1.90;;;14.60;1.00;;;;;;5013613;28;20034;-82
2022/11/09 09:52:15;;;;;;;7.20;1.80;;;14.80;1.00;;;;;;5016515;28;20025;-82
2022/11/09 09:54:43;;;;;;;;;;;15.00;1.00;;;;;;5002620;28;20045;-83
2022/11/09 09:57:18;;;;;;;5.82;2.00;;;15.40;1.00;;;;;;5016040;28;20165;-82
2022/11/09 09:59:49;;;;;;;7.38;2.03;;;15.80;1.00;;;;;;5006969;28;20018;-83
2022/11/09 10:02:23;;;;;;;4.85;1.85;;;15.80;1.00;;;;;;5001887;28;20389;-83
2022/11/09 10:04:49;;;;;;;12.63;2.38;;;15.60;1.00;;;;;;5001961;28;20085;-81
2022/11/09 10:07:51;;;;;;;7.18;2.50;;;15.30;1.00;;;;;;5003439;28;20022;-82
2022/11/09 10:10:45;;;;;;;8.38;1.90;;;15.00;1.00;;;;;;5006553;28;20104;-82
2022/11/09 10:13:32;;;;;;;10.27;2.67;;;14.90;1.00;;;;;;5007536;28;20050;-82
2022/11/09 10:16:12;;;;;;;8.45;2.10;;;14.80;1.00;;;;;;4998465;28;20034;-82
2022/11/09 10:18:50;;;;;;;8.68;2.60;;;14.80;1.00;;;;;;4997319;28;20038;-83
2022/11/09 10:21:35;;;;;;;9.70;2.35;;;14.50;1.00;;;;;;5013918;28;20029;-84
2022/11/09 10:24:06;;;;;;;10.35;2.28;;;15.00;1.00;;;;;;5020747;28;20442;-82
2022/11/09 10:26:40;;;;;;;5.82;2.55;;;15.00;1.00;;;;;;5009296;28;20049;-82
2022/11/09 10:29:45;;;;;;;5.68;2.22;;;15.00;1.00;;;;;;5008866;28;20050;-82
2022/11/09 10:32:14;;;;;;;8.13;2.40;;;15.10;1.00;;;;;;5011495;28;20033;-83
2022/11/09 10:35:02;;;;;;;10.18;2.72;;;15.10;1.00;;;;;;5017692;28;20014;-82
2022/11/09 10:37:38;;;;;;;12.27;2.40;;;15.10;1.00;;;;;;5017736;28;20165;-83
2022/11/09 10:40:17;;;;;;;7.43;2.38;;;15.20;1.00;;;;;;5026275;28;20101;-81
2022/11/09 10:43:10;;;;;;;9.30;2.55;;;15.40;1.00;;;;;;4999914;28;20018;-81
2022/11/09 10:45:41;;;;;;;12.13;3.33;;;15.60;1.00;;;;;;4994987;28;20396;-81
2022/11/09 10:48:08;;;;;;;8.73;2.88;;;15.80;1.00;;;;;;5003184;28;20504;-82
2022/11/09 10:50:51;;;;;;;6.03;2.78;;;15.70;1.00;;;;;;5009393;28;20049;-82
2022/11/09 10:53:24;;;;;;;11.93;3.33;;;15.50;1.00;;;;;;5004301;28;20030;-82
2022/11/09 10:56:12;;;;;;;7.95;2.90;;;15.50;1.00;;;;;;4999083;28;20619;-82
2022/11/09 10:58:38;;;;;;;7.82;3.10;;;15.50;1.00;;;;;;5013114;28;20025;-82
2022/11/09 11:01:10;;;;;;;7.40;2.85;;;15.30;1.00;;;;;;5004832;28;20100;-82
2022/11/09 11:03:37;;;;;;;9.15;3.17;;;15.30;1.00;;;;;;5004891;28;20041;-82
2022/11/09 11:06:06;;;;;;;9.15;3.30;;;15.20;1.00;;;;;;5001947;28;20036;-82
2022/11/09 11:08:36;;;;;;;12.60;3.40;;;15.20;1.00;;;;;;5001026;28;20038;-82
2022/11/09 11:11:05;;;;;;;;;;;15.20;1.00;;;;;;5003523;28;20026;-82
2022/11/09 11:13:31;;;;;;;5.82;3.28;;;15.00;1.00;;;;;;4997861;28;19967;-82
2022/11/09 11:15:57;;;;;;;10.77;3.20;;;15.00;1.00;;;;;;5013473;28;20065;-82
2022/11/09 11:18:25;;;;;;;11.05;3.88;;;14.60;1.00;;;;;;5011332;28;20109;-82
2022/11/09 11:21:06;;;;;;;7.13;2.97;;;14.40;1.00;;;;;;5011879;28;20025;-81
2022/11/09 11:23:35;;;;;;;9.77;3.05;;;14.30;1.00;;;;;;4995047;28;20030;-82
2022/11/09 11:26:18;;;;;;;10.88;3.42;;;14.10;1.50;;;;;;4995021;28;20022;-82
2022/11/09 11:28:55;;;;;;;10.30;3.50;;;14.00;19.70;;;;;;4997146;28;20022;-82
2022/11/09 11:31:21;;;;;;;8.55;3.47;;;13.70;30.70;;;;;;5006160;28;20023;-82
2022/11/09 11:33:48;;;;;;;10.27;3.92;;;13.70;41.50;;;;;;4997182;28;20026;-82
2022/11/09 11:36:48;;;;;;;9.65;3.50;;;13.70;49.80;;;;;;5005404;28;20026;-83
2022/11/09 11:39:33;;;;;;;7.35;3.40;;;13.40;70.70;;;;;;4998577;28;20026;-82
2022/11/09 11:42:24;;;;;;;8.10;3.80;;;13.30;83.80;;;;;;4996568;28;20378;-82
2022/11/09 11:45:05;;;;;;;10.05;3.90;;;13.20;99.90;;;;;;4994164;28;20022;-82
2022/11/09 11:47:44;;;;;;;8.85;3.08;;;13.00;99.90;;;;;;5003141;28;20472;-81
2022/11/09 11:50:35;;;;;;;5.95;2.15;;;12.90;99.90;;;;;;5003218;28;20461;-81
2022/11/09 11:53:32;;;;;;;5.60;1.52;;;12.70;99.90;;;;;;5000338;28;20057;-81
2022/11/09 11:56:16;;;;;;;5.43;1.70;;;12.70;99.90;;;;;;4994020;28;20440;-81
2022/11/09 11:58:56;;;;;;;4.07;1.52;;;12.60;99.90;;;;;;5004832;28;20396;-81
2022/11/09 12:01:38;;;;;;;3.47;1.42;;;12.60;99.90;;;;;;5005954;28;20121;-80
2022/11/09 12:04:17;;;;;;;3.85;0.75;;;12.40;99.90;;;;;;5000489;28;20032;-81
2022/11/09 12:06:46;;;;;;;2.33;0.30;;;12.30;99.90;;;;;;5000611;28;20104;-81
2022/11/09 12:09:26;;;;;;;0.82;0.30;;;12.20;99.90;;;;;;4994976;28;20145;-81
2022/11/09 12:12:19;;;;;;;1.23;0.40;;;12.10;99.90;;;;;;4999376;28;20499;-81
2022/11/09 12:15:18;;;;;;;0.88;0.40;;;12.00;99.90;;;;;;5009120;28;20041;-81
2022/11/09 12:18:12;;;;;;;1.83;1.00;;;12.00;99.90;;;;;;4997094;28;20045;-81
2022/11/09 12:20:55;;;;;;;1.38;0.45;;;12.00;99.90;;;;;;5002020;28;20054;-82
2022/11/09 12:23:48;;;;;;;1.15;0.60;;;12.10;99.90;;;;;;4997082;28;20037;-81
2022/11/09 12:26:23;;;;;;;1.75;0.60;;;12.20;99.90;;;;;;5001489;28;20076;-82
2022/11/09 12:29:43;;;;;;;1.35;0.38;;;12.30;99.90;;;;;;5003502;28;20386;-82
2022/11/09 12:32:21;;;;;;;1.55;0.55;;;12.40;99.90;;;;;;4993705;28;20045;-82
2022/11/09 12:34:55;;;;;;;3.00;0.57;;;12.30;99.90;;;;;;5000954;28;20033;-82
2022/11/09 12:37:31;;;;;;;1.23;0.40;;;12.40;99.90;;;;;;4997980;28;20088;-82
2022/11/09 12:40:05;;;;;;;1.90;0.43;;;12.40;99.90;;;;;;5005483;28;20026;-82
2022/11/09 12:42:37;;;;;;;2.95;0.68;;;12.50;99.90;;;;;;5006154;28;20485;-82
2022/11/09 12:45:06;;;;;;;3.17;0.50;;;12.50;99.90;;;;;;5011651;28;20485;-82
2022/11/09 12:47:40;;;;;;;4.72;0.60;;;12.60;99.90;;;;;;5015056;28;20041;-82
2022/11/09 12:50:15;;;;;;;2.72;0.88;;;12.70;99.90;;;;;;5005815;28;20393;-81
2022/11/09 12:52:42;;;;;;;3.75;0.80;;;12.80;99.90;;;;;;5005243;28;20065;-81
2022/11/09 12:55:14;;;;;;;3.83;0.75;;;12.60;99.90;;;;;;4998311;28;20034;-81
2022/11/09 12:57:44;;;;;;;5.10;1.15;;;12.70;99.90;;;;;;5001794;28;20022;-81
2022/11/09 13:00:33;;;;;;;6.68;1.33;;;12.60;99.90;;;;;;4996740;28;20033;-81
2022/11/09 13:03:13;;;;;;;3.58;1.20;;;12.60;99.90;;;;;;5014574;28;20531;-82
2022/11/09 13:05:39;;;;;;;5.53;0.90;;;12.70;99.90;;;;;;4998747;28;20023;-81
2022/11/09 13:08:14;;;;;;;5.15;1.73;;;12.70;99.90;;;;;;5012261;28;20025;-81